createdAt,value
2022-12-06T00:02:41.136Z,16.60
2022-12-06T00:05:49.148Z,17.27
2022-12-06T00:09:01.051Z,17.67
2022-12-06T00:12:03.033Z,17.65
2022-12-06T00:15:05.382Z,17.88
2022-12-06T00:18:10.095Z,18.95
2022-12-06T00:21:11.961Z,18.45
2022-12-06T00:24:27.885Z,18.85
2022-12-06T00:27:38.765Z,19.83
2022-12-06T00:30:43.623Z,19.60
2022-12-06T00:33:46.270Z,18.98
2022-12-06T00:36:57.062Z,19.20
2022-12-06T00:39:59.265Z,17.75
2022-12-06T00:43:16.620Z,18.25
2022-12-06T00:46:22.375Z,18.95
2022-12-06T00:49:24.514Z,19.27
2022-12-06T00:52:26.577Z,18.73
2022-12-06T00:55:28.417Z,18.08
2022-12-06T00:58:30.801Z,19.70
2022-12-06T01:01:34.130Z,18.37
2022-12-06T01:04:37.687Z,18.50
2022-12-06T01:07:42.059Z,17.40
2022-12-06T01:10:54.673Z,18.35
2022-12-06T01:13:57.266Z,13.95
2022-12-06T01:17:01.935Z,16.95
2022-12-06T01:20:05.009Z,18.83
2022-12-06T01:23:09.421Z,17.27
2022-12-06T01:26:20.427Z,18.35
2022-12-06T01:29:22.280Z,17.83
2022-12-06T01:32:24.974Z,18.70
2022-12-06T01:35:26.714Z,17.48
2022-12-06T01:38:28.578Z,18.95
2022-12-06T01:41:30.362Z,18.67
2022-12-06T01:44:39.430Z,19.42
2022-12-06T01:47:44.583Z,18.27
2022-12-06T01:50:47.908Z,18.25
2022-12-06T02:00:12.543Z,17.93
2022-12-06T02:03:20.273Z,19.33
2022-12-06T02:06:22.885Z,20.08
2022-12-06T02:09:31.271Z,19.85
2022-12-06T02:12:39.044Z,20.05
2022-12-06T02:15:59.881Z,20.38
2022-12-06T02:19:31.776Z,20.85
2022-12-06T02:23:10.102Z,22.77
2022-12-06T02:26:43.199Z,21.35
2022-12-06T02:30:23.907Z,22.03
2022-12-06T02:33:37.630Z,20.17
2022-12-06T02:37:01.098Z,20.20
2022-12-06T02:40:09.841Z,20.25
2022-12-06T02:43:17.488Z,18.98
2022-12-06T02:46:22.717Z,20.40
2022-12-06T02:49:28.026Z,20.00
2022-12-06T02:52:31.847Z,20.38
2022-12-06T02:55:34.977Z,20.17
2022-12-06T02:58:37.609Z,19.25
2022-12-06T03:01:45.648Z,14.50
2022-12-06T03:05:07.444Z,19.95
2022-12-06T03:08:22.223Z,20.75
2022-12-06T03:11:29.763Z,19.55
2022-12-06T03:14:43.520Z,21.10
2022-12-06T03:17:55.509Z,20.20
2022-12-06T03:21:08.734Z,19.83
2022-12-06T03:24:14.154Z,20.80
2022-12-06T03:27:19.570Z,20.92
2022-12-06T03:30:21.778Z,20.05
2022-12-06T03:33:26.548Z,20.15
2022-12-06T03:36:30.277Z,20.17
2022-12-06T03:39:44.414Z,21.20
2022-12-06T03:42:47.994Z,20.00
2022-12-06T03:46:11.219Z,18.92
2022-12-06T03:49:33.296Z,20.95
2022-12-06T03:52:35.185Z,21.35
2022-12-06T03:55:37.202Z,20.05
2022-12-06T03:58:39.059Z,21.08
2022-12-06T04:01:41.058Z,20.63
2022-12-06T04:04:42.902Z,20.85
2022-12-06T04:07:44.821Z,21.45
2022-12-06T04:10:46.779Z,19.40
2022-12-06T04:13:48.759Z,19.77
2022-12-06T04:17:09.054Z,20.25
2022-12-06T04:20:11.367Z,19.98
2022-12-06T04:23:13.619Z,20.73
2022-12-06T04:26:20.897Z,20.20
2022-12-06T04:29:41.164Z,19.83
2022-12-06T04:33:01.564Z,19.70
2022-12-06T04:36:22.187Z,18.85
2022-12-06T04:39:24.519Z,19.67
2022-12-06T04:42:45.142Z,19.38
2022-12-06T04:45:47.055Z,19.08
2022-12-06T04:48:48.849Z,18.23
2022-12-06T04:51:52.191Z,18.33
2022-12-06T04:57:55.820Z,17.48
2022-12-06T05:00:57.819Z,18.35
2022-12-06T05:03:59.701Z,17.90
2022-12-06T05:07:01.802Z,17.52
2022-12-06T05:10:04.161Z,16.65
2022-12-06T05:13:06.277Z,16.73
2022-12-06T05:16:09.579Z,17.45
2022-12-06T05:22:16.447Z,16.95
2022-12-06T05:25:18.276Z,17.13
2022-12-06T05:28:20.030Z,16.83
2022-12-06T05:31:23.325Z,17.98
2022-12-06T05:37:28.773Z,17.83
2022-12-06T05:40:31.464Z,16.73
2022-12-06T05:43:33.588Z,20.30
2022-12-06T05:46:35.584Z,17.15
2022-12-06T05:49:37.332Z,16.95
2022-12-06T05:52:39.168Z,19.25
2022-12-06T05:55:41.195Z,18.77
2022-12-06T05:58:43.114Z,18.73
2022-12-06T06:01:45.109Z,19.30
2022-12-06T06:04:46.922Z,19.05
2022-12-06T06:07:48.907Z,20.80
2022-12-06T06:10:50.678Z,20.25
2022-12-06T06:13:54.517Z,20.17
2022-12-06T06:16:56.327Z,19.98
2022-12-06T06:19:58.138Z,19.52
2022-12-06T06:22:59.955Z,19.08
2022-12-06T06:26:07.541Z,19.83
2022-12-06T06:29:09.822Z,19.52
2022-12-06T06:32:12.645Z,18.70
2022-12-06T06:35:14.402Z,18.67
2022-12-06T06:38:16.118Z,18.17
2022-12-06T06:41:19.085Z,18.27
2022-12-06T06:44:20.906Z,17.55
2022-12-06T06:47:23.212Z,16.95
2022-12-06T06:50:25.130Z,16.23
2022-12-06T06:53:27.900Z,15.05
2022-12-06T06:56:29.965Z,15.57
2022-12-06T06:59:31.815Z,16.90
2022-12-06T07:02:33.603Z,16.05
2022-12-06T07:05:35.500Z,16.42
2022-12-06T07:08:38.682Z,20.73
2022-12-06T07:11:40.609Z,22.98
2022-12-06T07:14:42.366Z,16.55
2022-12-06T07:17:44.332Z,15.88
2022-12-06T07:20:47.259Z,14.05
2022-12-06T07:23:49.331Z,14.60
2022-12-06T07:26:51.135Z,14.40
2022-12-06T07:29:53.073Z,15.10
2022-12-06T07:32:55.533Z,17.08
2022-12-06T07:36:12.136Z,15.77
2022-12-06T07:39:15.319Z,15.02
2022-12-06T07:42:35.773Z,16.30
2022-12-06T07:45:38.201Z,17.83
2022-12-06T07:48:40.016Z,17.57
2022-12-06T07:51:42.580Z,17.52
2022-12-06T07:54:44.482Z,15.40
2022-12-06T07:57:46.418Z,13.80
2022-12-06T08:00:48.096Z,14.10
2022-12-06T08:03:50.467Z,12.35
2022-12-06T08:06:52.447Z,11.48
2022-12-06T08:09:54.539Z,11.60
2022-12-06T08:12:56.313Z,13.45
2022-12-06T08:15:58.233Z,14.32
2022-12-06T08:19:00.211Z,11.77
2022-12-06T08:22:02.036Z,12.63
2022-12-06T08:25:04.114Z,12.00
2022-12-06T08:28:06.077Z,13.77
2022-12-06T08:31:09.661Z,12.20
2022-12-06T08:34:12.754Z,12.48
2022-12-06T08:37:14.496Z,11.68
2022-12-06T08:40:16.412Z,12.00
2022-12-06T08:43:19.320Z,11.75
2022-12-06T08:46:21.293Z,11.35
2022-12-06T08:49:25.169Z,9.32
2022-12-06T08:52:27.137Z,10.18
2022-12-06T08:55:28.905Z,9.30
2022-12-06T08:58:31.116Z,10.18
2022-12-06T09:01:37.748Z,9.63
2022-12-06T09:04:40.152Z,11.02
2022-12-06T09:07:42.040Z,10.98
2022-12-06T09:10:44.401Z,11.05
2022-12-06T09:13:46.684Z,12.40
2022-12-06T09:16:49.172Z,12.98
2022-12-06T09:19:51.527Z,11.73
2022-12-06T09:22:53.346Z,11.90
2022-12-06T09:25:55.304Z,11.18
2022-12-06T09:28:57.995Z,11.93
2022-12-06T09:31:59.778Z,13.13
2022-12-06T09:35:01.749Z,13.38
2022-12-06T09:38:04.238Z,12.23
2022-12-06T09:41:23.325Z,13.23
2022-12-06T09:45:05.851Z,12.85
2022-12-06T09:48:47.322Z,13.25
2022-12-06T09:51:59.608Z,11.88
2022-12-06T09:55:29.466Z,13.18
2022-12-06T09:58:37.299Z,14.55
2022-12-06T10:01:55.806Z,12.15
2022-12-06T10:05:15.616Z,11.20
2022-12-06T10:08:35.630Z,12.02
2022-12-06T10:11:48.064Z,10.15
2022-12-06T10:14:55.844Z,10.55
2022-12-06T10:18:20.647Z,12.18
2022-12-06T10:22:00.925Z,14.45
2022-12-06T10:25:25.872Z,11.20
2022-12-06T10:28:41.754Z,10.00
2022-12-06T10:31:56.889Z,8.98
2022-12-06T10:35:07.443Z,28.05
2022-12-06T10:38:20.607Z,11.90
2022-12-06T10:41:39.084Z,9.25
2022-12-06T10:44:58.806Z,10.02
2022-12-06T10:48:02.777Z,9.25
2022-12-06T10:51:10.878Z,8.73
2022-12-06T10:54:24.024Z,8.32
2022-12-06T10:57:37.695Z,9.40
2022-12-06T11:01:01.807Z,7.07
2022-12-06T11:04:10.930Z,11.02
2022-12-06T11:07:18.503Z,9.82
2022-12-06T11:10:31.004Z,12.50
2022-12-06T11:13:42.665Z,8.13
2022-12-06T11:17:01.164Z,7.25
2022-12-06T11:20:26.957Z,7.47
2022-12-06T11:23:50.170Z,6.75
2022-12-06T11:27:04.868Z,6.45
2022-12-06T11:30:19.852Z,7.25
2022-12-06T11:33:33.505Z,7.05
2022-12-06T11:36:35.424Z,6.77
2022-12-06T11:39:37.482Z,6.63
2022-12-06T11:42:39.813Z,6.32
2022-12-06T11:45:45.875Z,7.78
2022-12-06T11:48:47.953Z,9.82
2022-12-06T11:51:51.312Z,11.23
2022-12-06T11:58:03.995Z,10.90
2022-12-06T12:01:12.023Z,10.38
2022-12-06T12:04:26.142Z,11.02
2022-12-06T12:07:28.136Z,11.35
2022-12-06T12:10:39.713Z,10.60
2022-12-06T12:13:52.354Z,10.63
2022-12-06T12:17:02.018Z,9.90
2022-12-06T12:20:06.041Z,10.43
2022-12-06T12:23:21.842Z,9.30
2022-12-06T12:26:24.806Z,7.38
2022-12-06T12:29:26.864Z,7.47
2022-12-06T12:32:28.733Z,6.32
2022-12-06T12:35:30.603Z,7.38
2022-12-06T12:38:43.405Z,6.95
2022-12-06T12:41:45.569Z,7.40
2022-12-06T12:44:48.123Z,8.88
2022-12-06T12:48:03.836Z,8.90
2022-12-06T12:51:20.629Z,10.02
2022-12-06T12:54:43.164Z,10.60
2022-12-06T12:57:48.194Z,9.10
2022-12-06T13:00:50.448Z,8.55
2022-12-06T13:03:57.597Z,6.53
2022-12-06T13:07:03.628Z,7.53
2022-12-06T13:10:15.950Z,5.95
2022-12-06T13:13:26.264Z,6.00
2022-12-06T13:16:34.317Z,5.85
2022-12-06T13:19:40.801Z,5.57
2022-12-06T13:22:45.415Z,5.90
2022-12-06T13:26:10.066Z,6.28
2022-12-06T13:29:35.044Z,6.90
2022-12-06T13:32:59.601Z,7.38
2022-12-06T13:36:09.754Z,7.38
2022-12-06T13:39:30.350Z,7.97
2022-12-06T13:42:36.485Z,7.25
2022-12-06T13:45:41.568Z,6.75
2022-12-06T13:49:03.837Z,6.45
2022-12-06T13:52:05.649Z,6.95
2022-12-06T13:55:45.487Z,7.55
2022-12-06T13:58:56.120Z,6.70
2022-12-06T14:01:59.213Z,6.38
2022-12-06T14:05:01.204Z,7.00
2022-12-06T14:08:03.254Z,6.68
2022-12-06T14:11:14.761Z,7.97
2022-12-06T14:14:22.777Z,8.40
2022-12-06T14:18:00.631Z,9.60
2022-12-06T14:20:59.237Z,9.95
2022-12-06T14:24:01.235Z,10.82
2022-12-06T14:27:10.589Z,10.20
2022-12-06T14:30:25.836Z,10.00
2022-12-06T14:33:28.004Z,8.57
2022-12-06T14:36:33.604Z,9.43
2022-12-06T14:39:35.319Z,8.45
2022-12-06T14:42:56.201Z,8.35
2022-12-06T14:45:59.906Z,8.20
2022-12-06T14:49:20.253Z,8.82
2022-12-06T14:52:28.738Z,8.13
2022-12-06T14:55:36.602Z,7.70
2022-12-06T14:58:45.141Z,8.70
2022-12-06T15:01:49.971Z,8.68
2022-12-06T15:04:52.346Z,9.02
2022-12-06T15:07:54.566Z,9.05
2022-12-06T15:11:33.564Z,8.30
2022-12-06T15:14:35.340Z,8.30
2022-12-06T15:17:37.089Z,8.68
2022-12-06T15:20:39.664Z,9.13
2022-12-06T15:23:55.332Z,9.07
2022-12-06T15:26:57.633Z,9.77
2022-12-06T15:29:59.691Z,9.48
2022-12-06T15:33:01.675Z,11.15
2022-12-06T15:36:03.725Z,11.20
2022-12-06T15:39:05.577Z,10.90
2022-12-06T15:42:20.311Z,9.10
2022-12-06T15:45:22.173Z,8.40
2022-12-06T15:48:24.040Z,8.63
2022-12-06T15:51:27.232Z,8.15
2022-12-06T15:54:29.191Z,7.97
2022-12-06T15:57:30.937Z,8.32
2022-12-06T16:00:32.692Z,8.98
2022-12-06T16:03:34.637Z,11.20
2022-12-06T16:06:36.571Z,12.80
2022-12-06T16:09:38.712Z,11.60
2022-12-06T16:12:58.931Z,11.50
2022-12-06T16:16:00.928Z,11.52
2022-12-06T16:19:02.762Z,12.15
2022-12-06T16:22:04.745Z,13.50
2022-12-06T16:25:06.697Z,12.98
2022-12-06T16:28:08.745Z,33.22
2022-12-06T16:31:14.169Z,52.83
2022-12-06T16:34:16.296Z,42.28
2022-12-06T16:37:18.222Z,35.08
2022-12-06T16:40:22.909Z,22.92
2022-12-06T16:43:25.629Z,29.70
2022-12-06T16:46:38.635Z,16.73
2022-12-06T16:49:49.009Z,12.60
2022-12-06T16:52:52.176Z,10.23
2022-12-06T16:55:53.907Z,10.25
2022-12-06T16:58:55.844Z,10.68
2022-12-06T17:01:57.937Z,9.15
2022-12-06T17:05:02.367Z,10.93
2022-12-06T17:08:04.538Z,10.85
2022-12-06T17:11:25.064Z,11.85
2022-12-06T17:14:27.454Z,10.57
2022-12-06T17:17:29.476Z,10.50
2022-12-06T17:20:32.608Z,9.18
2022-12-06T17:23:34.502Z,10.55
2022-12-06T17:26:36.448Z,9.68
2022-12-06T17:29:38.326Z,10.23
2022-12-06T17:32:40.291Z,10.38
2022-12-06T17:35:42.489Z,12.23
2022-12-06T17:38:44.408Z,11.10
2022-12-06T17:42:05.452Z,12.98
2022-12-06T17:45:07.791Z,12.32
2022-12-06T17:48:09.820Z,10.88
2022-12-06T17:51:11.663Z,11.00
2022-12-06T17:54:14.640Z,10.15
2022-12-06T17:57:18.501Z,9.88
2022-12-06T18:00:20.757Z,9.65
2022-12-06T18:03:22.588Z,10.20
2022-12-06T18:06:26.711Z,8.85
2022-12-06T18:09:28.457Z,8.77
2022-12-06T18:12:31.781Z,9.05
2022-12-06T18:15:38.123Z,9.10
2022-12-06T18:18:41.192Z,9.70
2022-12-06T18:21:43.638Z,9.05
2022-12-06T18:25:05.554Z,10.03
2022-12-06T18:28:08.010Z,9.70
2022-12-06T18:31:11.410Z,8.38
2022-12-06T18:37:15.326Z,7.57
2022-12-06T18:40:17.436Z,7.22
2022-12-06T18:43:19.901Z,7.43
2022-12-06T18:46:25.338Z,7.90
2022-12-06T18:49:27.163Z,8.27
2022-12-06T18:52:29.026Z,7.45
2022-12-06T18:55:30.818Z,9.27
2022-12-06T18:58:33.004Z,8.88
2022-12-06T19:01:37.978Z,9.88
2022-12-06T19:04:39.863Z,8.95
2022-12-06T19:07:42.173Z,10.80
2022-12-06T19:10:44.348Z,8.30
2022-12-06T19:13:52.320Z,8.85
2022-12-06T19:16:54.401Z,8.63
2022-12-06T19:19:56.216Z,9.45
2022-12-06T19:22:58.243Z,8.25
2022-12-06T19:26:02.133Z,7.93
2022-12-06T19:29:05.568Z,8.38
2022-12-06T19:35:09.533Z,10.20
2022-12-06T19:38:11.528Z,9.43
2022-12-06T19:41:16.303Z,10.20
2022-12-06T19:44:18.693Z,10.05
2022-12-06T19:47:20.499Z,16.67
2022-12-06T19:50:22.537Z,10.10
2022-12-06T19:53:24.406Z,9.63
2022-12-06T19:56:27.625Z,9.13
2022-12-06T19:59:33.785Z,9.40
2022-12-06T20:02:35.585Z,9.40
2022-12-06T20:05:37.468Z,9.77
2022-12-06T20:08:39.464Z,9.95
2022-12-06T20:12:00.603Z,10.50
2022-12-06T20:15:02.559Z,10.27
2022-12-06T20:18:04.501Z,10.10
2022-12-06T20:21:06.513Z,10.27
2022-12-06T20:24:10.664Z,10.07
2022-12-06T20:27:12.452Z,10.75
2022-12-06T20:30:14.639Z,10.27
2022-12-06T20:33:16.593Z,10.30
2022-12-06T20:39:25.912Z,10.20
2022-12-06T20:42:27.819Z,10.30
2022-12-06T20:45:29.690Z,10.15
2022-12-06T20:48:34.623Z,10.57
2022-12-06T20:51:36.744Z,10.32
2022-12-06T20:54:38.659Z,10.55
2022-12-06T20:57:40.606Z,10.80
2022-12-06T21:00:43.995Z,11.45
2022-12-06T21:06:51.236Z,11.60
2022-12-06T21:09:53.030Z,11.88
2022-12-06T21:12:54.850Z,11.65
2022-12-06T21:16:11.458Z,11.65
2022-12-06T21:19:17.855Z,11.77
2022-12-06T21:22:19.711Z,12.32
2022-12-06T21:25:21.455Z,11.80
2022-12-06T21:28:23.531Z,12.65
2022-12-06T21:31:30.597Z,13.07
2022-12-06T21:34:32.701Z,12.65
2022-12-06T21:37:35.050Z,13.05
2022-12-06T21:40:37.112Z,12.60
2022-12-06T21:43:39.902Z,13.77
2022-12-06T21:46:41.768Z,13.73
2022-12-06T21:49:43.580Z,12.65
2022-12-06T21:52:45.543Z,14.00
2022-12-06T21:55:47.549Z,13.18
2022-12-06T21:58:50.366Z,13.15
2022-12-06T22:01:52.407Z,12.82
2022-12-06T22:04:54.383Z,13.13
2022-12-06T22:07:56.229Z,13.35
2022-12-06T22:10:58.150Z,13.40
2022-12-06T22:14:01.110Z,12.60
2022-12-06T22:17:02.992Z,13.00
2022-12-06T22:20:05.563Z,13.93
2022-12-06T22:23:07.372Z,12.53
2022-12-06T22:26:11.685Z,13.90
2022-12-06T22:29:13.807Z,12.82
2022-12-06T22:32:15.868Z,12.80
2022-12-06T22:35:17.817Z,14.13
2022-12-06T22:38:19.612Z,13.13
2022-12-06T22:41:23.057Z,13.35
2022-12-06T22:47:26.722Z,12.55
2022-12-06T22:50:28.500Z,13.93
2022-12-06T22:53:30.273Z,13.15
2022-12-06T22:56:33.507Z,13.05
2022-12-06T22:59:35.232Z,13.40
2022-12-06T23:02:37.004Z,12.35
2022-12-06T23:05:38.723Z,13.00
2022-12-06T23:08:41.024Z,13.45
2022-12-06T23:11:43.746Z,13.05
2022-12-06T23:14:45.515Z,13.95
2022-12-06T23:17:47.257Z,12.95
2022-12-06T23:20:49.250Z,13.63
2022-12-06T23:23:56.590Z,12.38
2022-12-06T23:26:58.585Z,12.57
2022-12-06T23:30:01.041Z,12.63
2022-12-06T23:33:03.272Z,13.80
2022-12-06T23:36:11.661Z,13.13
2022-12-06T23:39:13.755Z,12.90
2022-12-06T23:42:16.005Z,12.98
2022-12-06T23:45:17.713Z,13.55
2022-12-06T23:48:19.646Z,11.40
2022-12-06T23:51:23.829Z,12.93
2022-12-06T23:54:25.611Z,12.23
2022-12-06T23:57:28.195Z,13.13
